Time;durP1;ratioP1;P1;durP2;ratioP2;P2;SDS_P1;SDS_P2;PMS_P1;PMS_P2;Temp;Humidity;BMP_temperature;BMP_pressure;BME280_temperature;BME280_humidity;BME280_pressure;Samples;Min_cycle;Max_cycle;Signal;HPM_P1;HPM_P2
2021/05/21 00:01:41;;;;;;;14.07;4.00;;;16.30;81.20;;;;;;5065220;28;20047;-67
2021/05/21 00:04:09;;;;;;;20.38;3.70;;;16.20;80.60;;;;;;5070299;28;20023;-66
2021/05/21 00:06:35;;;;;;;17.95;3.08;;;16.20;80.40;;;;;;5068509;28;20112;-68
2021/05/21 00:09:02;;;;;;;16.38;3.58;;;16.20;80.20;;;;;;5066513;28;20491;-66
2021/05/21 00:11:29;;;;;;;15.95;2.63;;;16.20;79.80;;;;;;5066127;28;20021;-68
2021/05/21 00:13:55;;;;;;;15.75;3.83;;;16.20;79.60;;;;;;5069025;28;20127;-67
2021/05/21 00:16:22;;;;;;;18.25;3.15;;;16.20;79.40;;;;;;5069139;28;20079;-66
2021/05/21 00:18:51;;;;;;;15.00;3.72;;;16.20;79.40;;;;;;5066734;28;20021;-66
2021/05/21 00:21:18;;;;;;;14.20;4.20;;;16.20;79.10;;;;;;5070224;28;20013;-66
2021/05/21 00:23:45;;;;;;;15.45;2.80;;;16.20;79.00;;;;;;5069122;28;20657;-68
2021/05/21 00:26:12;;;;;;;23.75;3.90;;;16.20;78.80;;;;;;5070403;28;20062;-67
2021/05/21 00:28:38;;;;;;;10.77;2.63;;;16.20;78.70;;;;;;5070130;28;20078;-68
2021/05/21 00:31:05;;;;;;;10.43;3.05;;;16.20;78.60;;;;;;5061512;28;20483;-65
2021/05/21 00:33:32;;;;;;;9.88;2.80;;;16.10;78.50;;;;;;5051786;28;20032;-67
2021/05/21 00:35:58;;;;;;;16.52;3.10;;;16.10;78.50;;;;;;5066500;28;20086;-66
2021/05/21 00:38:25;;;;;;;14.60;3.80;;;16.20;78.60;;;;;;5069801;28;20087;-68
2021/05/21 00:40:51;;;;;;;9.13;3.03;;;16.10;78.70;;;;;;5067707;28;20556;-67
2021/05/21 00:43:18;;;;;;;12.23;3.35;;;16.10;78.70;;;;;;5069375;28;20066;-66
2021/05/21 00:45:44;;;;;;;18.70;3.55;;;16.10;78.80;;;;;;5064340;28;20154;-68
2021/05/21 00:48:11;;;;;;;12.07;3.15;;;16.10;78.90;;;;;;5066933;28;20020;-67
2021/05/21 00:50:41;;;;;;;16.23;3.72;;;16.10;79.10;;;;;;5065808;28;20013;-69
2021/05/21 00:53:09;;;;;;;17.45;3.80;;;16.10;79.20;;;;;;5065929;28;20150;-66
2021/05/21 00:55:35;;;;;;;16.42;3.60;;;16.10;79.30;;;;;;5068824;28;20105;-67
2021/05/21 00:58:02;;;;;;;25.20;5.10;;;16.10;79.60;;;;;;5066086;28;20017;-68
2021/05/21 01:00:29;;;;;;;15.07;3.95;;;16.10;79.80;;;;;;5067414;28;20758;-67
2021/05/21 01:02:56;;;;;;;20.30;5.68;;;16.10;79.90;;;;;;5066277;28;20028;-66
2021/05/21 01:05:22;;;;;;;16.27;3.85;;;16.20;80.50;;;;;;5067983;28;20708;-68
2021/05/21 01:07:50;;;;;;;12.65;3.92;;;16.10;80.70;;;;;;5067869;28;20036;-67
2021/05/21 01:10:16;;;;;;;19.27;4.65;;;16.10;80.50;;;;;;5067950;28;20028;-69
2021/05/21 01:12:43;;;;;;;15.60;4.07;;;16.10;80.20;;;;;;5061023;28;20031;-67
2021/05/21 01:15:11;;;;;;;15.35;2.78;;;16.10;79.80;;;;;;5065919;28;20039;-67
2021/05/21 01:17:38;;;;;;;11.70;3.88;;;16.10;79.40;;;;;;5070129;28;20395;-68
2021/05/21 01:20:07;;;;;;;14.07;2.50;;;16.00;79.10;;;;;;5068072;28;20095;-70
2021/05/21 01:22:34;;;;;;;14.30;3.00;;;16.10;79.20;;;;;;5066895;28;20111;-67
2021/05/21 01:25:00;;;;;;;15.80;3.10;;;16.00;79.30;;;;;;5066496;28;20114;-66
2021/05/21 01:27:27;;;;;;;10.85;3.00;;;16.00;79.50;;;;;;5062729;28;20057;-69
2021/05/21 01:29:54;;;;;;;24.10;5.40;;;16.00;79.70;;;;;;5065453;28;20121;-67
2021/05/21 01:32:20;;;;;;;13.02;4.47;;;16.00;80.00;;;;;;5067562;28;20032;-67
2021/05/21 01:34:47;;;;;;;17.00;4.00;;;16.00;80.20;;;;;;5070884;28;20004;-67
2021/05/21 01:37:21;;;;;;;20.90;5.22;;;16.00;80.40;;;;;;5067735;28;20028;-66
2021/05/21 01:39:52;;;;;;;23.08;4.82;;;16.00;80.60;;;;;;5065363;28;20073;-66
2021/05/21 01:42:19;;;;;;;15.45;4.43;;;16.00;80.80;;;;;;5066820;28;20025;-67
2021/05/21 01:44:46;;;;;;;16.05;4.57;;;16.00;81.00;;;;;;5064135;28;20102;-66
2021/05/21 01:47:14;;;;;;;22.30;5.60;;;16.00;81.20;;;;;;5066354;28;20068;-66
2021/05/21 01:49:41;;;;;;;19.35;4.10;;;16.00;81.30;;;;;;5063983;28;20545;-67
2021/05/21 01:52:08;;;;;;;15.45;4.63;;;16.10;81.60;;;;;;5064704;28;20403;-69
2021/05/21 01:54:35;;;;;;;22.80;4.32;;;16.00;81.60;;;;;;5066598;28;20020;-69
2021/05/21 01:57:03;;;;;;;19.50;4.47;;;16.10;81.80;;;;;;5065721;28;20479;-66
2021/05/21 01:59:30;;;;;;;19.10;4.05;;;16.10;81.90;;;;;;5067085;28;20534;-66
2021/05/21 02:01:57;;;;;;;18.13;6.05;;;16.10;82.10;;;;;;5063995;28;20099;-69
2021/05/21 02:04:42;;;;;;;17.05;3.65;;;16.10;82.30;;;;;;5067797;28;20020;-69
2021/05/21 02:07:13;;;;;;;14.63;3.42;;;16.10;82.60;;;;;;5067122;28;20063;-66
2021/05/21 02:09:58;;;;;;;16.75;3.40;;;16.00;82.30;;;;;;5066211;28;20140;-68
2021/05/21 02:12:29;;;;;;;22.52;5.03;;;16.10;82.40;;;;;;5068318;28;20077;-66
2021/05/21 02:14:57;;;;;;;16.05;3.95;;;16.10;82.40;;;;;;5061950;28;20161;-66
2021/05/21 02:17:25;;;;;;;17.23;4.90;;;16.10;82.40;;;;;;5065712;28;20056;-66
2021/05/21 02:19:55;;;;;;;19.80;4.13;;;16.10;82.40;;;;;;5067486;28;20039;-65
2021/05/21 02:22:22;;;;;;;15.52;4.70;;;16.10;82.50;;;;;;5066302;28;20369;-66
2021/05/21 02:24:50;;;;;;;19.63;4.28;;;16.10;82.60;;;;;;5062197;28;20041;-66
2021/05/21 02:27:17;;;;;;;10.77;2.80;;;16.10;82.60;;;;;;5063783;28;20032;-66
2021/05/21 02:29:43;;;;;;;18.30;3.83;;;16.10;82.70;;;;;;5067825;28;20487;-69
2021/05/21 02:32:10;;;;;;;13.80;3.35;;;16.10;82.80;;;;;;5065095;28;20027;-69
2021/05/21 02:34:36;;;;;;;17.35;5.13;;;16.10;82.80;;;;;;5066578;28;20107;-67
2021/05/21 02:37:03;;;;;;;16.23;3.22;;;16.10;82.90;;;;;;5062297;28;20563;-69
2021/05/21 02:39:30;;;;;;;13.75;4.07;;;16.10;83.00;;;;;;5067996;28;20379;-67
2021/05/21 02:41:56;;;;;;;13.18;2.92;;;16.10;83.00;;;;;;5066174;28;20105;-66
2021/05/21 02:44:23;;;;;;;8.93;3.20;;;16.10;83.00;;;;;;5065510;28;20025;-66
2021/05/21 02:46:49;;;;;;;16.45;3.50;;;16.10;83.10;;;;;;5065845;28;20480;-69
2021/05/21 02:49:19;;;;;;;12.93;5.65;;;16.10;83.20;;;;;;5065231;28;20017;-69
2021/05/21 02:51:51;;;;;;;14.27;3.17;;;16.10;83.20;;;;;;5063598;28;20017;-65
2021/05/21 02:54:18;;;;;;;15.52;3.33;;;16.10;83.20;;;;;;5065634;28;20050;-66
2021/05/21 02:56:44;;;;;;;13.40;3.35;;;16.10;83.30;;;;;;5066076;28;20376;-68
2021/05/21 02:59:11;;;;;;;16.13;2.30;;;16.10;83.30;;;;;;5064715;28;20051;-66
2021/05/21 03:01:38;;;;;;;11.88;2.33;;;16.10;83.20;;;;;;5062931;28;20024;-66
2021/05/21 03:04:05;;;;;;;14.10;3.28;;;16.10;83.20;;;;;;5066166;28;20407;-69
2021/05/21 03:06:31;;;;;;;11.60;3.03;;;16.10;83.20;;;;;;5064271;28;20068;-65
2021/05/21 03:08:57;;;;;;;8.73;2.92;;;16.10;83.20;;;;;;5064658;28;20032;-66
2021/05/21 03:11:24;;;;;;;14.43;3.15;;;16.10;83.20;;;;;;5064163;28;20048;-66
2021/05/21 03:13:50;;;;;;;11.93;2.63;;;16.10;83.20;;;;;;5064256;28;20032;-66
2021/05/21 03:16:17;;;;;;;16.60;3.78;;;16.10;83.40;;;;;;5065144;28;20013;-68
2021/05/21 03:18:43;;;;;;;13.73;3.10;;;16.10;83.20;;;;;;5066390;28;20048;-65
2021/05/21 03:21:10;;;;;;;15.40;3.10;;;16.10;83.90;;;;;;5066865;28;20472;-66
2021/05/21 03:23:36;;;;;;;11.20;4.00;;;16.10;83.40;;;;;;5063805;28;20477;-65
2021/05/21 03:26:03;;;;;;;10.40;2.97;;;16.10;83.30;;;;;;5069638;28;20021;-66
2021/05/21 03:28:30;;;;;;;12.05;2.80;;;16.10;83.40;;;;;;5069827;28;20016;-67
2021/05/21 03:30:56;;;;;;;13.10;3.33;;;16.10;83.40;;;;;;5070514;28;20099;-68
2021/05/21 03:33:22;;;;;;;11.52;2.75;;;16.10;83.40;;;;;;5070175;28;20069;-66
2021/05/21 03:35:49;;;;;;;9.85;3.60;;;16.10;83.50;;;;;;5069463;28;20031;-66
2021/05/21 03:38:15;;;;;;;13.18;2.90;;;16.10;83.50;;;;;;5069392;28;20023;-66
2021/05/21 03:40:42;;;;;;;14.20;2.70;;;16.10;83.60;;;;;;5071263;28;20112;-69
2021/05/21 03:43:09;;;;;;;7.68;2.30;;;16.10;83.60;;;;;;5050733;28;20028;-65
2021/05/21 03:45:36;;;;;;;11.23;3.20;;;16.10;83.70;;;;;;5070651;28;20103;-67
2021/05/21 03:48:03;;;;;;;8.68;3.63;;;16.10;83.70;;;;;;5065896;28;20052;-66
2021/05/21 03:50:30;;;;;;;13.10;3.60;;;16.00;83.70;;;;;;5068060;28;20020;-68
2021/05/21 03:52:56;;;;;;;15.00;3.85;;;16.10;83.80;;;;;;5071171;28;20052;-69
2021/05/21 03:55:23;;;;;;;15.77;4.43;;;16.10;83.80;;;;;;5069841;28;20501;-68
2021/05/21 03:57:50;;;;;;;12.77;3.45;;;16.10;83.50;;;;;;5067306;28;20025;-69
2021/05/21 04:00:19;;;;;;;25.08;4.95;;;16.00;83.10;;;;;;5067872;28;20036;-67
2021/05/21 04:02:47;;;;;;;14.07;3.47;;;16.00;82.80;;;;;;5066407;28;20032;-68
2021/05/21 04:05:14;;;;;;;14.57;3.05;;;16.00;82.50;;;;;;5070024;28;20036;-70
2021/05/21 04:07:40;;;;;;;12.57;2.72;;;16.00;82.40;;;;;;5069221;28;20099;-71
2021/05/21 04:10:08;;;;;;;21.40;5.82;;;16.00;82.10;;;;;;5070429;28;20020;-70
2021/05/21 04:12:35;;;;;;;9.95;2.95;;;16.00;82.00;;;;;;5067984;28;20471;-70
2021/05/21 04:15:01;;;;;;;16.17;2.90;;;16.00;82.00;;;;;;5070806;28;20024;-68
2021/05/21 04:17:28;;;;;;;10.00;3.20;;;16.00;81.90;;;;;;5066275;28;20048;-68
2021/05/21 04:19:54;;;;;;;9.55;2.72;;;16.00;81.80;;;;;;5066545;28;20124;-66
2021/05/21 04:22:21;;;;;;;13.10;3.45;;;16.00;81.80;;;;;;5066778;28;20032;-69
2021/05/21 04:24:48;;;;;;;6.93;2.60;;;16.00;82.00;;;;;;5068063;28;20133;-67
2021/05/21 04:27:14;;;;;;;9.18;2.60;;;16.00;82.10;;;;;;5070529;28;20033;-71
2021/05/21 04:29:41;;;;;;;19.17;6.15;;;16.00;82.20;;;;;;5068342;28;20108;-67
2021/05/21 04:32:07;;;;;;;18.27;6.10;;;16.00;82.30;;;;;;5068251;28;20028;-71
2021/05/21 04:34:34;;;;;;;18.23;6.13;;;16.00;82.30;;;;;;5066419;28;20056;-67
2021/05/21 04:37:01;;;;;;;23.85;7.38;;;16.00;82.10;;;;;;5070637;28;20028;-72
2021/05/21 04:39:28;;;;;;;16.52;8.65;;;16.00;82.00;;;;;;5069406;28;20035;-67
2021/05/21 04:41:55;;;;;;;17.52;7.72;;;16.00;81.90;;;;;;5064106;28;20074;-69
2021/05/21 04:44:23;;;;;;;14.48;5.65;;;16.00;81.70;;;;;;5069703;28;20024;-74
2021/05/21 04:46:50;;;;;;;17.35;4.55;;;16.00;81.60;;;;;;5063750;28;20033;-68
2021/05/21 04:49:32;;;;;;;18.23;5.68;;;16.00;81.40;;;;;;5070693;28;20048;-68
2021/05/21 04:52:10;;;;;;;23.35;4.63;;;16.00;81.30;;;;;;5046057;28;20041;-74
2021/05/21 04:54:39;;;;;;;13.75;4.78;;;16.00;81.10;;;;;;5062996;28;20112;-67
2021/05/21 04:57:06;;;;;;;15.93;4.47;;;15.90;80.90;;;;;;5061296;28;20021;-73
2021/05/21 04:59:33;;;;;;;18.25;3.95;;;16.00;80.80;;;;;;5061365;28;20491;-68
2021/05/21 05:02:00;;;;;;;11.75;3.55;;;16.00;80.70;;;;;;5058971;28;20032;-69
2021/05/21 05:04:27;;;;;;;12.10;3.00;;;16.00;80.60;;;;;;5059378;28;20012;-68
2021/05/21 05:06:53;;;;;;;18.08;4.75;;;15.90;80.60;;;;;;5061662;28;20025;-68
2021/05/21 05:09:20;;;;;;;19.83;4.78;;;16.00;80.50;;;;;;5061802;28;20025;-69
2021/05/21 05:11:48;;;;;;;16.45;5.32;;;16.00;80.50;;;;;;5063445;28;20025;-71
2021/05/21 05:14:14;;;;;;;14.23;4.03;;;16.00;80.40;;;;;;5062269;28;20035;-71
2021/05/21 05:16:41;;;;;;;20.13;4.82;;;15.90;80.30;;;;;;5065666;28;20008;-69
2021/05/21 05:19:10;;;;;;;11.45;4.38;;;15.90;80.40;;;;;;5061247;28;20057;-72
2021/05/21 05:21:41;;;;;;;14.30;4.60;;;15.90;80.50;;;;;;5058053;28;20085;-70
2021/05/21 05:24:17;;;;;;;19.13;5.57;;;15.90;80.60;;;;;;5059844;28;20055;-71
2021/05/21 05:26:46;;;;;;;21.02;6.05;;;15.90;80.80;;;;;;5056820;28;20028;-68
2021/05/21 05:29:13;;;;;;;16.42;5.10;;;15.90;81.00;;;;;;5058927;28;20013;-68
2021/05/21 05:31:40;;;;;;;14.20;3.90;;;15.90;81.00;;;;;;5055756;28;20017;-72
2021/05/21 05:34:08;;;;;;;16.88;5.40;;;15.90;81.20;;;;;;5063982;28;21099;-73
2021/05/21 05:36:35;;;;;;;17.95;5.70;;;15.90;81.40;;;;;;5061962;28;20463;-68
2021/05/21 05:39:05;;;;;;;21.83;6.72;;;15.90;81.50;;;;;;5067870;28;20033;-72
2021/05/21 05:41:32;;;;;;;16.23;4.60;;;15.90;81.60;;;;;;5067496;28;20414;-73
2021/05/21 05:43:59;;;;;;;17.30;5.45;;;15.90;81.70;;;;;;5064386;28;20514;-69
2021/05/21 05:46:27;;;;;;;15.93;5.25;;;15.90;81.70;;;;;;5068135;28;20039;-70
2021/05/21 05:48:54;;;;;;;17.88;4.70;;;15.90;81.80;;;;;;5066443;28;20031;-72
2021/05/21 05:51:20;;;;;;;17.00;4.50;;;15.90;82.00;;;;;;5066730;28;20017;-73
2021/05/21 05:53:47;;;;;;;12.45;4.40;;;15.90;82.10;;;;;;5068441;28;20067;-70
2021/05/21 05:56:13;;;;;;;11.38;4.70;;;15.90;82.10;;;;;;5065806;28;20028;-72
2021/05/21 05:58:41;;;;;;;17.00;4.38;;;15.80;82.10;;;;;;5067887;28;20024;-72
2021/05/21 06:01:07;;;;;;;18.48;4.68;;;15.80;82.10;;;;;;5049711;28;20079;-69
2021/05/21 06:03:34;;;;;;;15.50;5.72;;;15.90;82.20;;;;;;5066726;28;20016;-68
2021/05/21 06:06:01;;;;;;;17.52;6.78;;;15.90;82.20;;;;;;5066253;28;20103;-70
2021/05/21 06:08:29;;;;;;;17.00;5.78;;;15.90;82.30;;;;;;5066544;28;20020;-71
2021/05/21 06:10:57;;;;;;;15.15;4.47;;;15.90;82.30;;;;;;5068335;28;20024;-69
2021/05/21 06:13:27;;;;;;;12.38;5.45;;;15.80;82.30;;;;;;5067253;28;20471;-67
2021/05/21 06:15:56;;;;;;;15.63;4.63;;;15.90;82.40;;;;;;5062251;28;20077;-69
2021/05/21 06:18:22;;;;;;;15.45;6.10;;;15.90;82.50;;;;;;5067124;28;20017;-72
2021/05/21 06:20:50;;;;;;;17.48;4.65;;;15.90;82.60;;;;;;5067420;28;20020;-71
2021/05/21 06:23:17;;;;;;;17.55;4.35;;;15.90;82.60;;;;;;5064438;28;20538;-68
2021/05/21 06:28:13;;;;;;;19.95;5.05;;;15.90;82.70;;;;;;5066025;28;20442;-73
2021/05/21 06:30:40;;;;;;;16.70;5.03;;;15.90;82.60;;;;;;5067112;28;20422;-70
2021/05/21 06:33:06;;;;;;;16.83;6.55;;;15.90;82.70;;;;;;5067999;28;20023;-71
2021/05/21 06:35:36;;;;;;;14.00;5.10;;;15.90;82.80;;;;;;5060971;28;20024;-67
2021/05/21 06:38:03;;;;;;;17.20;4.55;;;15.90;82.80;;;;;;5062949;28;20020;-67
2021/05/21 06:40:30;;;;;;;16.45;5.15;;;15.90;82.90;;;;;;5067358;28;20012;-69
2021/05/21 06:42:57;;;;;;;21.30;4.97;;;15.90;83.00;;;;;;5066984;28;20075;-72
2021/05/21 06:45:24;;;;;;;21.08;5.85;;;15.90;83.00;;;;;;5068540;28;20056;-71
2021/05/21 06:47:52;;;;;;;21.33;5.47;;;16.00;83.00;;;;;;5047852;28;20395;-69
2021/05/21 06:50:18;;;;;;;16.80;4.95;;;16.00;82.80;;;;;;5067220;28;20025;-68
2021/05/21 06:52:45;;;;;;;19.10;5.53;;;16.00;82.60;;;;;;5065635;28;20771;-70
2021/05/21 06:55:14;;;;;;;17.20;6.78;;;16.00;82.40;;;;;;5064695;28;20017;-68
2021/05/21 06:57:41;;;;;;;22.42;5.03;;;16.00;82.20;;;;;;5066956;28;20511;-68
2021/05/21 07:00:08;;;;;;;14.25;4.65;;;16.00;82.10;;;;;;5069259;28;20024;-72
2021/05/21 07:02:36;;;;;;;18.42;5.55;;;16.00;82.00;;;;;;5063788;28;20021;-71
2021/05/21 07:05:04;;;;;;;23.40;5.25;;;16.00;81.30;;;;;;5066674;28;20041;-70
2021/05/21 07:07:31;;;;;;;17.27;3.50;;;16.00;80.50;;;;;;5069833;28;20035;-67
2021/05/21 07:10:00;;;;;;;10.82;3.42;;;16.00;79.10;;;;;;5067034;28;20053;-68
2021/05/21 07:12:28;;;;;;;10.57;3.30;;;16.00;78.20;;;;;;5068452;28;20085;-68
2021/05/21 07:14:54;;;;;;;12.85;4.07;;;16.00;77.80;;;;;;5069256;28;20017;-68
2021/05/21 07:17:21;;;;;;;18.08;4.78;;;16.00;77.50;;;;;;5070106;28;20024;-68
2021/05/21 07:19:47;;;;;;;13.10;5.38;;;16.00;77.30;;;;;;5070329;28;20016;-70
2021/05/21 07:22:13;;;;;;;11.55;3.35;;;16.00;77.40;;;;;;5067994;28;20016;-75
2021/05/21 07:24:40;;;;;;;11.93;3.45;;;16.00;77.50;;;;;;5069689;28;20037;-67
2021/05/21 07:27:07;;;;;;;14.00;3.22;;;16.00;77.60;;;;;;5066314;28;20032;-73
2021/05/21 07:29:33;;;;;;;18.77;3.83;;;16.00;77.70;;;;;;5069590;28;20032;-67
2021/05/21 07:32:00;;;;;;;6.80;2.80;;;16.00;77.90;;;;;;5069406;28;20029;-73
2021/05/21 07:34:27;;;;;;;8.65;3.30;;;16.00;78.10;;;;;;5072046;28;20028;-67
2021/05/21 07:36:54;;;;;;;12.30;3.55;;;16.10;78.20;;;;;;5068164;28;20087;-68
2021/05/21 07:39:20;;;;;;;9.43;2.95;;;16.00;78.20;;;;;;5070541;28;20032;-70
2021/05/21 07:41:47;;;;;;;11.55;3.08;;;16.10;78.20;;;;;;5070934;28;20021;-68
2021/05/21 07:44:15;;;;;;;13.73;3.90;;;16.20;78.20;;;;;;5067478;28;20021;-69
2021/05/21 07:46:42;;;;;;;9.75;2.80;;;16.20;78.10;;;;;;5068675;28;20040;-68
2021/05/21 07:49:08;;;;;;;10.63;2.72;;;16.20;78.00;;;;;;5068797;28;20013;-69
2021/05/21 07:51:35;;;;;;;12.85;2.85;;;16.30;77.90;;;;;;5069167;28;20073;-69
2021/05/21 07:54:01;;;;;;;11.07;3.40;;;16.30;77.60;;;;;;5069145;28;20066;-70
2021/05/21 07:56:28;;;;;;;9.43;2.85;;;16.40;77.50;;;;;;5070278;28;20011;-72
2021/05/21 07:58:54;;;;;;;20.90;3.85;;;16.40;77.10;;;;;;5071591;28;20027;-67
2021/05/21 08:01:20;;;;;;;7.60;2.45;;;16.50;76.80;;;;;;5063244;28;20021;-75
2021/05/21 08:03:48;;;;;;;16.38;3.38;;;16.50;76.40;;;;;;5070835;28;20024;-73
2021/05/21 08:06:16;;;;;;;13.35;2.83;;;16.50;76.10;;;;;;5064898;28;20477;-70
2021/05/21 08:08:43;;;;;;;10.30;4.10;;;16.60;75.80;;;;;;5064585;28;20445;-67
2021/05/21 08:11:09;;;;;;;14.57;3.80;;;16.60;75.50;;;;;;5069857;28;20031;-68
2021/05/21 08:13:39;;;;;;;10.27;3.08;;;16.60;75.10;;;;;;5067892;28;20380;-67
2021/05/21 08:16:10;;;;;;;12.60;3.05;;;16.70;74.80;;;;;;5067992;28;20539;-67
2021/05/21 08:18:37;;;;;;;12.90;2.42;;;16.70;74.50;;;;;;5066227;28;20012;-74
2021/05/21 08:21:04;;;;;;;11.35;3.45;;;16.70;74.20;;;;;;5066742;28;20021;-71
2021/05/21 08:23:31;;;;;;;12.48;3.42;;;16.70;73.70;;;;;;5063108;28;20025;-75
2021/05/21 08:25:57;;;;;;;10.05;5.18;;;16.70;73.20;;;;;;5066201;28;20025;-75
2021/05/21 08:28:26;;;;;;;10.55;3.15;;;16.70;72.70;;;;;;5069114;28;20043;-75
2021/05/21 08:30:53;;;;;;;11.27;3.60;;;16.80;72.30;;;;;;5063917;28;20115;-70
2021/05/21 08:33:20;;;;;;;14.75;3.50;;;16.80;71.90;;;;;;5068236;28;20538;-75
2021/05/21 08:35:49;;;;;;;12.70;4.45;;;16.80;71.70;;;;;;5066219;28;20479;-71
2021/05/21 08:38:17;;;;;;;16.02;4.18;;;16.80;71.30;;;;;;5067453;28;20099;-72
2021/05/21 08:40:43;;;;;;;12.85;3.78;;;16.80;70.70;;;;;;5068667;28;20027;-71
2021/05/21 08:43:12;;;;;;;14.75;3.67;;;16.80;70.40;;;;;;5068783;28;20375;-75
2021/05/21 08:45:40;;;;;;;18.42;4.63;;;16.70;70.40;;;;;;5068047;28;20070;-71
2021/05/21 08:48:13;;;;;;;17.33;4.38;;;16.70;70.40;;;;;;5067977;28;20033;-75
2021/05/21 08:50:41;;;;;;;16.52;3.97;;;16.70;70.50;;;;;;5066220;28;20035;-75
2021/05/21 08:53:08;;;;;;;12.57;3.05;;;16.80;70.50;;;;;;5068018;28;20021;-73
2021/05/21 08:55:34;;;;;;;19.70;5.32;;;16.80;70.20;;;;;;5067377;28;20024;-76
2021/05/21 08:58:01;;;;;;;16.90;4.28;;;16.80;70.00;;;;;;5063177;28;20117;-71
2021/05/21 09:00:27;;;;;;;14.52;5.53;;;16.90;69.90;;;;;;5069168;28;20032;-75
2021/05/21 09:02:54;;;;;;;12.05;3.08;;;16.80;69.70;;;;;;5067658;28;20025;-72
2021/05/21 09:05:20;;;;;;;13.55;3.25;;;16.90;69.50;;;;;;5070076;28;20044;-75
2021/05/21 09:07:47;;;;;;;21.35;4.18;;;16.90;69.40;;;;;;5068684;28;20068;-76
2021/05/21 09:10:16;;;;;;;15.38;4.57;;;16.90;69.20;;;;;;5067686;28;20013;-76
2021/05/21 09:12:51;;;;;;;15.45;3.03;;;16.90;69.00;;;;;;5066568;28;20016;-73
2021/05/21 09:15:19;;;;;;;11.45;3.17;;;17.00;68.90;;;;;;5063860;28;20511;-74
2021/05/21 09:17:57;;;;;;;16.85;4.43;;;16.90;68.60;;;;;;5063955;28;20032;-72
2021/05/21 09:20:36;;;;;;;13.80;2.55;;;16.90;68.90;;;;;;5064603;28;20019;-73
2021/05/21 09:23:13;;;;;;;12.00;3.13;;;16.90;69.30;;;;;;5070015;28;20023;-70
2021/05/21 09:25:40;;;;;;;10.65;2.80;;;16.80;69.50;;;;;;5068693;28;20518;-72
2021/05/21 09:28:27;;;;;;;13.40;4.45;;;16.90;69.90;;;;;;5066430;28;20483;-74
2021/05/21 09:31:23;;;;;;;8.57;3.53;;;16.80;70.10;;;;;;5067837;28;20107;-74
2021/05/21 09:33:59;;;;;;;13.73;3.53;;;16.80;70.50;;;;;;5066444;28;20028;-72
2021/05/21 09:36:32;;;;;;;16.02;4.10;;;16.80;70.90;;;;;;5064013;28;20016;-75
2021/05/21 09:39:00;;;;;;;11.45;4.13;;;16.80;71.20;;;;;;5066896;28;20074;-74
2021/05/21 09:41:27;;;;;;;15.30;3.05;;;16.80;71.40;;;;;;5068534;28;20042;-75
2021/05/21 09:43:59;;;;;;;10.13;3.00;;;16.70;71.60;;;;;;5066802;28;20025;-75
2021/05/21 09:46:48;;;;;;;13.90;3.33;;;16.80;71.90;;;;;;5050360;28;20062;-68
2021/05/21 09:49:35;;;;;;;10.07;3.00;;;16.80;72.10;;;;;;5065472;28;20021;-68
2021/05/21 09:52:06;;;;;;;20.52;3.80;;;16.80;72.20;;;;;;5067972;28;20039;-72
2021/05/21 09:54:57;;;;;;;15.18;2.78;;;16.80;72.00;;;;;;5067808;28;20589;-74
2021/05/21 09:57:31;;;;;;;10.25;2.95;;;16.80;71.80;;;;;;5066710;28;20028;-75
2021/05/21 09:59:57;;;;;;;7.70;2.38;;;16.90;71.50;;;;;;5063422;28;20043;-74
2021/05/21 10:02:29;;;;;;;12.50;3.05;;;16.90;71.30;;;;;;5064611;28;20017;-72
2021/05/21 10:04:57;;;;;;;9.00;3.22;;;17.00;71.20;;;;;;5066785;28;20379;-73
2021/05/21 10:07:25;;;;;;;12.40;2.85;;;17.00;71.00;;;;;;5067767;28;20029;-75
2021/05/21 10:09:52;;;;;;;11.82;2.92;;;17.10;70.90;;;;;;5065881;28;20029;-69
2021/05/21 10:12:19;;;;;;;8.10;2.97;;;17.10;70.70;;;;;;5067325;28;20071;-75
2021/05/21 10:14:50;;;;;;;12.32;3.28;;;17.30;70.80;;;;;;5067429;28;20475;-71
2021/05/21 10:17:23;;;;;;;16.02;3.28;;;17.30;70.40;;;;;;5062131;28;20062;-75
2021/05/21 10:19:51;;;;;;;12.70;3.35;;;17.40;69.90;;;;;;5064923;28;20024;-75
2021/05/21 10:22:42;;;;;;;8.30;2.28;;;17.40;69.20;;;;;;5065649;28;20055;-76
2021/05/21 10:25:28;;;;;;;11.57;3.00;;;17.50;68.60;;;;;;5066506;28;20043;-73
2021/05/21 10:27:57;;;;;;;12.57;2.97;;;17.50;68.00;;;;;;5063902;28;20045;-73
2021/05/21 10:30:25;;;;;;;12.98;3.60;;;17.60;67.90;;;;;;5066645;28;20028;-76
2021/05/21 10:33:28;;;;;;;8.75;2.50;;;17.70;67.30;;;;;;5065806;28;20062;-70
2021/05/21 10:36:14;;;;;;;12.55;2.92;;;17.70;66.40;;;;;;5062997;28;20036;-68
2021/05/21 10:39:06;;;;;;;7.70;2.72;;;17.70;65.90;;;;;;5066854;28;20025;-77
2021/05/21 10:41:35;;;;;;;11.20;2.90;;;17.80;65.00;;;;;;5067274;28;20023;-69
2021/05/21 10:44:17;;;;;;;12.77;4.28;;;17.80;64.30;;;;;;5049766;28;20078;-76
2021/05/21 10:46:43;;;;;;;16.98;3.13;;;17.90;64.20;;;;;;5063568;28;20538;-76
2021/05/21 10:49:30;;;;;;;12.98;2.90;;;17.90;63.80;;;;;;5067612;28;20070;-71
2021/05/21 10:52:01;;;;;;;9.68;2.92;;;17.90;63.70;;;;;;5067139;28;20036;-77
2021/05/21 10:54:44;;;;;;;11.30;3.47;;;18.00;63.60;;;;;;5064798;28;20067;-73
2021/05/21 10:57:23;;;;;;;10.57;3.25;;;18.00;63.20;;;;;;5062333;28;20505;-72
2021/05/21 10:59:54;;;;;;;11.02;3.63;;;18.00;63.40;;;;;;5066932;28;20017;-76
2021/05/21 11:02:25;;;;;;;10.32;3.30;;;18.00;63.20;;;;;;5068346;28;20114;-76
2021/05/21 11:04:53;;;;;;;15.75;4.78;;;18.00;63.20;;;;;;5068408;28;20032;-76
2021/05/21 11:07:45;;;;;;;16.48;3.35;;;18.10;63.60;;;;;;5066783;28;20119;-75
2021/05/21 11:10:33;;;;;;;12.00;3.15;;;18.10;64.40;;;;;;5062610;28;20033;-75
2021/05/21 11:13:09;;;;;;;12.57;3.88;;;18.20;64.60;;;;;;5065130;28;20431;-76
2021/05/21 11:15:41;;;;;;;13.15;3.88;;;18.20;64.50;;;;;;5064193;28;20082;-74
2021/05/21 11:18:20;;;;;;;10.57;2.83;;;18.20;63.60;;;;;;5065284;28;20557;-76
2021/05/21 11:21:08;;;;;;;10.75;2.80;;;18.20;63.20;;;;;;5061009;28;20367;-76
2021/05/21 11:23:53;;;;;;;11.30;4.18;;;18.20;62.20;;;;;;5065712;28;20019;-73
2021/05/21 11:26:21;;;;;;;11.02;2.67;;;18.30;62.20;;;;;;5066572;28;20028;-71
2021/05/21 11:28:54;;;;;;;10.85;2.80;;;18.30;62.00;;;;;;5067480;28;20023;-75
2021/05/21 11:31:25;;;;;;;12.80;2.30;;;18.40;61.80;;;;;;5064431;28;20044;-74
2021/05/21 11:33:58;;;;;;;7.22;3.67;;;18.40;61.40;;;;;;5063663;28;20035;-71
2021/05/21 11:36:27;;;;;;;8.88;1.92;;;18.40;60.60;;;;;;5065000;28;20032;-76
2021/05/21 11:38:54;;;;;;;8.05;2.20;;;18.40;60.70;;;;;;5064207;28;20492;-71
2021/05/21 11:41:40;;;;;;;7.63;2.22;;;18.50;60.50;;;;;;5066709;28;20027;-74
2021/05/21 11:44:12;;;;;;;7.15;2.55;;;18.50;59.70;;;;;;5070970;28;20077;-76
2021/05/21 11:46:40;;;;;;;7.43;2.25;;;18.50;59.20;;;;;;5067681;28;20036;-74
2021/05/21 11:49:19;;;;;;;6.60;2.13;;;18.60;59.20;;;;;;5068741;28;20012;-76
2021/05/21 11:51:55;;;;;;;7.78;1.75;;;18.60;58.20;;;;;;5064735;28;20032;-72
2021/05/21 11:54:22;;;;;;;6.03;1.80;;;18.60;58.10;;;;;;5065765;28;20017;-77
2021/05/21 11:56:49;;;;;;;7.35;2.00;;;18.60;56.40;;;;;;5064581;28;20009;-75
2021/05/21 11:59:18;;;;;;;7.28;1.88;;;18.70;56.50;;;;;;5069345;28;20040;-76
2021/05/21 12:01:50;;;;;;;7.00;1.55;;;18.70;56.70;;;;;;5066717;28;20074;-76
2021/05/21 12:04:17;;;;;;;12.73;6.82;;;18.70;56.70;;;;;;5062571;28;20053;-74
2021/05/21 12:06:47;;;;;;;9.80;4.47;;;18.70;56.70;;;;;;5064516;28;20029;-70
2021/05/21 12:09:15;;;;;;;6.57;3.13;;;18.70;56.90;;;;;;5063959;28;20020;-74
2021/05/21 12:11:42;;;;;;;10.30;3.40;;;18.80;56.90;;;;;;5067835;28;20021;-75
2021/05/21 12:14:13;;;;;;;8.13;4.45;;;18.80;56.80;;;;;;5068754;28;20059;-75
2021/05/21 12:16:42;;;;;;;7.35;3.40;;;18.80;57.20;;;;;;5059658;28;20796;-74
2021/05/21 12:19:10;;;;;;;10.75;6.55;;;18.80;56.10;;;;;;5064679;28;20727;-76
2021/05/21 12:21:38;;;;;;;8.82;5.90;;;18.80;55.10;;;;;;5067407;28;20020;-73
2021/05/21 12:24:06;;;;;;;8.43;5.47;;;18.80;55.30;;;;;;5067917;28;20045;-68
2021/05/21 12:26:38;;;;;;;9.07;4.45;;;18.80;55.50;;;;;;5061584;28;20496;-71
2021/05/21 12:29:08;;;;;;;11.88;3.50;;;18.90;56.10;;;;;;5067514;28;20039;-77
2021/05/21 12:31:49;;;;;;;7.25;1.67;;;18.90;56.10;;;;;;5067390;28;20012;-75
2021/05/21 12:34:20;;;;;;;6.35;2.95;;;18.90;56.10;;;;;;5060464;28;20074;-77
2021/05/21 12:37:07;;;;;;;10.10;3.47;;;18.90;56.10;;;;;;5068528;28;20575;-77
2021/05/21 12:39:41;;;;;;;7.93;3.20;;;19.00;56.20;;;;;;5064529;28;20530;-73
2021/05/21 12:42:08;;;;;;;8.23;1.95;;;19.00;56.30;;;;;;5069091;28;20071;-73
2021/05/21 12:44:38;;;;;;;9.55;2.13;;;19.00;56.20;;;;;;5065080;28;20067;-69
2021/05/21 12:47:05;;;;;;;5.50;1.55;;;19.00;55.80;;;;;;5067336;28;20033;-73
2021/05/21 12:49:36;;;;;;;3.95;1.52;;;19.00;56.00;;;;;;5061152;28;20396;-75
2021/05/21 12:52:07;;;;;;;5.95;2.90;;;19.00;56.20;;;;;;5066518;28;20541;-70